createdAt,value
2019-06-08T00:05:26.763Z,95909.00
2019-06-08T00:10:56.105Z,95933.00
2019-06-08T00:16:25.380Z,95944.00
2019-06-08T00:21:54.670Z,95954.00
2019-06-08T00:27:24.634Z,95974.00
2019-06-08T00:32:53.889Z,96001.00
2019-06-08T00:38:23.157Z,95988.00
2019-06-08T00:43:52.436Z,96000.00
2019-06-08T00:49:22.692Z,96002.00
2019-06-08T00:54:52.091Z,95999.00
2019-06-08T01:00:22.532Z,96017.00
2019-06-08T01:05:51.869Z,96023.00
2019-06-08T01:11:22.451Z,96023.00
2019-06-08T01:16:51.874Z,96021.00
2019-06-08T01:22:21.567Z,96028.00
2019-06-08T01:27:50.904Z,96027.00
2019-06-08T01:33:20.460Z,96029.00
2019-06-08T01:38:49.838Z,96034.00
2019-06-08T01:44:19.098Z,96039.00
2019-06-08T01:49:48.457Z,96063.00
2019-06-08T01:55:17.739Z,96053.00
2019-06-08T02:00:47.115Z,96065.00
2019-06-08T02:06:16.424Z,96074.00
2019-06-08T02:11:45.668Z,96076.00
2019-06-08T02:17:14.961Z,96072.00
2019-06-08T02:22:44.310Z,96088.00
2019-06-08T02:28:13.639Z,96086.00
2019-06-08T02:33:42.918Z,96101.00
2019-06-08T02:39:12.190Z,96099.00
2019-06-08T02:44:41.481Z,96103.00
2019-06-08T02:50:11.370Z,96111.00
2019-06-08T02:55:41.608Z,96117.00
2019-06-08T03:01:11.283Z,96119.00
2019-06-08T03:06:44.218Z,96134.00
2019-06-08T03:12:13.717Z,96129.00
2019-06-08T03:17:43.023Z,96136.00
2019-06-08T03:23:12.293Z,96144.00
2019-06-08T03:28:44.072Z,96132.00
2019-06-08T03:34:12.595Z,96148.00
2019-06-08T03:39:43.124Z,96173.00
2019-06-08T03:45:12.920Z,96175.00
2019-06-08T03:50:44.492Z,96180.00
2019-06-08T03:56:13.215Z,96197.00
2019-06-08T04:01:43.910Z,96176.00
2019-06-08T04:07:13.498Z,96193.00
2019-06-08T04:12:44.282Z,96198.00
2019-06-08T04:18:13.800Z,96212.00
2019-06-08T04:23:44.903Z,96213.00
2019-06-08T04:29:14.071Z,96227.00
2019-06-08T04:34:45.369Z,96219.00
2019-06-08T04:40:15.559Z,96231.00
2019-06-08T04:45:45.866Z,96233.00
2019-06-08T04:51:15.811Z,96248.00
2019-06-08T04:56:46.951Z,96255.00
2019-06-08T05:02:16.094Z,96251.00
2019-06-08T05:07:46.086Z,96272.00
2019-06-08T05:13:16.395Z,96279.00
2019-06-08T05:18:45.680Z,96280.00
2019-06-08T05:24:14.952Z,96289.00
2019-06-08T05:29:45.385Z,96307.00
2019-06-08T05:35:15.227Z,96313.00
2019-06-08T05:40:45.556Z,96325.00
2019-06-08T05:46:14.881Z,96321.00
2019-06-08T05:51:44.154Z,96331.00
2019-06-08T05:57:13.422Z,96342.00
2019-06-08T06:02:42.700Z,96344.00
2019-06-08T06:08:18.889Z,96365.00
2019-06-08T06:13:43.058Z,96363.00
2019-06-08T06:19:12.438Z,96367.00
2019-06-08T06:24:43.657Z,96385.00
2019-06-08T06:30:13.762Z,96389.00
2019-06-08T06:35:43.840Z,96395.00
2019-06-08T06:41:13.066Z,96396.00
2019-06-08T06:46:42.346Z,96396.00
2019-06-08T06:52:11.637Z,96405.00
2019-06-08T06:57:41.287Z,96408.00
2019-06-08T07:03:10.568Z,96419.00
2019-06-08T07:08:41.991Z,96420.00
2019-06-08T07:14:10.852Z,96421.00
2019-06-08T07:19:40.127Z,96426.00
2019-06-08T07:25:09.687Z,96435.00
2019-06-08T07:30:39.012Z,96435.00
2019-06-08T07:36:10.007Z,96441.00
2019-06-08T07:41:39.286Z,96449.00
2019-06-08T07:47:08.566Z,96442.00
2019-06-08T07:52:37.918Z,96442.00
2019-06-08T07:58:07.462Z,96450.00
2019-06-08T08:03:36.730Z,96437.00
2019-06-08T08:09:07.932Z,96450.00
2019-06-08T08:14:37.253Z,96447.00
2019-06-08T08:20:07.951Z,96453.00
2019-06-08T08:25:37.916Z,96450.00
2019-06-08T08:31:07.809Z,96459.00
2019-06-08T08:36:38.245Z,96449.00
2019-06-08T08:42:08.499Z,96451.00
2019-06-08T08:47:38.695Z,96465.00
2019-06-08T08:53:08.454Z,96465.00
2019-06-08T08:58:38.133Z,96470.00
2019-06-08T09:04:08.862Z,96476.00
2019-06-08T09:09:38.812Z,96478.00
2019-06-08T09:15:08.740Z,96479.00
2019-06-08T09:20:38.164Z,96477.00
2019-06-08T09:26:12.396Z,96484.00
2019-06-08T09:31:39.224Z,96472.00
2019-06-08T09:37:08.819Z,96486.00
2019-06-08T09:42:38.106Z,96501.00
2019-06-08T09:48:09.282Z,96492.00
2019-06-08T09:53:41.408Z,96496.00
2019-06-08T09:59:11.057Z,96502.00
2019-06-08T10:04:40.553Z,96504.00
2019-06-08T10:10:10.963Z,96492.00
2019-06-08T10:15:40.250Z,96500.00
2019-06-08T10:21:09.742Z,96495.00
2019-06-08T10:26:39.244Z,96497.00
2019-06-08T10:32:10.175Z,96492.00
2019-06-08T10:37:39.483Z,96493.00
2019-06-08T10:43:09.922Z,96504.00
2019-06-08T10:48:39.748Z,96490.00
2019-06-08T10:54:11.063Z,96497.00
2019-06-08T10:59:40.438Z,96506.00
2019-06-08T11:05:13.900Z,96495.00
2019-06-08T11:10:41.428Z,96499.00
2019-06-08T11:16:13.363Z,96498.00
2019-06-08T11:21:41.731Z,96473.00
2019-06-08T11:27:12.880Z,96475.00
2019-06-08T11:32:41.995Z,96471.00
2019-06-08T11:38:12.647Z,96488.00
2019-06-08T11:43:42.053Z,96474.00
2019-06-08T11:49:14.738Z,96465.00
2019-06-08T11:54:42.302Z,96465.00
2019-06-08T12:00:25.204Z,96465.00
2019-06-08T12:05:48.256Z,96455.00
2019-06-08T12:11:20.868Z,96467.00
2019-06-08T12:16:49.358Z,96469.00
2019-06-08T12:22:21.654Z,96471.00
2019-06-08T12:27:52.629Z,96456.00
2019-06-08T12:33:22.778Z,96457.00
2019-06-08T12:38:51.696Z,96458.00
2019-06-08T12:44:22.203Z,96459.00
2019-06-08T12:49:51.743Z,96455.00
2019-06-08T12:55:24.876Z,96456.00
2019-06-08T13:00:52.772Z,96449.00
2019-06-08T13:06:22.047Z,96447.00
2019-06-08T13:11:51.332Z,96442.00
2019-06-08T13:17:21.331Z,96442.00
2019-06-08T13:22:50.832Z,96447.00
2019-06-08T13:28:24.990Z,96438.00
2019-06-08T13:33:52.546Z,96439.00
2019-06-08T13:39:23.078Z,96443.00
2019-06-08T13:44:52.680Z,96445.00
2019-06-08T13:50:23.884Z,96445.00
2019-06-08T13:55:56.744Z,96436.00
2019-06-08T14:01:24.346Z,96438.00
2019-06-08T14:06:53.642Z,96423.00
2019-06-08T14:12:24.305Z,96425.00
2019-06-08T14:17:53.905Z,96422.00
2019-06-08T14:23:24.535Z,96419.00
2019-06-08T14:28:54.187Z,96427.00
2019-06-08T14:34:24.775Z,96419.00
2019-06-08T14:39:54.413Z,96426.00
2019-06-08T14:45:24.708Z,96423.00
2019-06-08T14:50:54.003Z,96419.00
2019-06-08T14:56:23.275Z,96401.00
2019-06-08T15:01:52.555Z,96410.00
2019-06-08T15:07:23.311Z,96399.00
2019-06-08T15:12:53.724Z,96395.00
2019-06-08T15:18:23.873Z,96385.00
2019-06-08T15:23:53.138Z,96386.00
2019-06-08T15:29:22.891Z,96375.00
2019-06-08T15:34:52.142Z,96375.00
2019-06-08T15:40:21.561Z,96373.00
2019-06-08T15:45:51.427Z,96377.00
2019-06-08T15:51:22.076Z,96374.00
2019-06-08T15:56:52.330Z,96375.00
2019-06-08T16:02:22.988Z,96369.00
2019-06-08T16:07:52.505Z,96362.00
2019-06-08T16:13:21.779Z,96362.00
2019-06-08T16:18:51.129Z,96370.00
2019-06-08T16:24:20.399Z,96363.00
2019-06-08T16:29:49.672Z,96365.00
2019-06-08T16:35:18.954Z,96368.00
2019-06-08T16:40:48.237Z,96372.00
2019-06-08T16:46:17.524Z,96364.00
2019-06-08T16:51:46.796Z,96367.00
2019-06-08T16:57:16.066Z,96366.00
2019-06-08T17:02:45.370Z,96380.00
2019-06-08T17:08:14.646Z,96375.00
2019-06-08T17:13:43.924Z,96369.00
2019-06-08T17:19:13.269Z,96359.00
2019-06-08T17:24:42.486Z,96359.00
2019-06-08T17:30:11.994Z,96362.00
2019-06-08T17:35:42.341Z,96363.00
2019-06-08T17:41:11.721Z,96363.00
2019-06-08T17:46:41.398Z,96358.00
2019-06-08T17:52:12.022Z,96365.00
2019-06-08T17:57:48.312Z,96365.00
2019-06-08T18:03:12.365Z,96362.00
2019-06-08T18:08:43.617Z,96357.00
2019-06-08T18:14:12.644Z,96355.00
2019-06-08T18:19:45.038Z,96348.00
2019-06-08T18:25:13.598Z,96352.00
2019-06-08T18:30:44.688Z,96352.00
2019-06-08T18:36:17.416Z,96361.00
2019-06-08T18:41:48.395Z,96369.00
2019-06-08T18:47:17.861Z,96370.00
2019-06-08T18:52:49.439Z,96363.00
2019-06-08T18:58:24.828Z,96370.00
2019-06-08T19:03:52.079Z,96365.00
2019-06-08T19:09:20.925Z,96370.00
2019-06-08T19:14:52.317Z,96376.00
2019-06-08T19:20:21.499Z,96379.00
2019-06-08T19:25:50.886Z,96383.00
2019-06-08T19:31:20.447Z,96393.00
2019-06-08T19:36:54.221Z,96398.00
2019-06-08T19:42:35.262Z,96401.00
2019-06-08T19:47:51.740Z,96420.00
2019-06-08T19:53:21.025Z,96422.00
2019-06-08T19:59:00.331Z,96429.00
2019-06-08T20:04:21.298Z,96426.00
2019-06-08T20:09:50.828Z,96424.00
2019-06-08T20:15:20.772Z,96425.00
2019-06-08T20:20:52.692Z,96421.00
2019-06-08T20:26:21.067Z,96416.00
2019-06-08T20:31:51.525Z,96416.00
2019-06-08T20:37:20.989Z,96411.00
2019-06-08T20:42:53.298Z,96417.00
2019-06-08T20:48:21.249Z,96414.00
2019-06-08T20:53:51.886Z,96424.00
2019-06-08T20:59:29.859Z,96410.00
2019-06-08T21:04:54.587Z,96407.00
2019-06-08T21:10:24.532Z,96402.00
2019-06-08T21:15:57.136Z,96406.00
2019-06-08T21:21:24.831Z,96403.00
2019-06-08T21:26:56.517Z,96414.00
2019-06-08T21:32:27.683Z,96403.00
2019-06-08T21:37:59.677Z,96412.00
2019-06-08T21:43:28.074Z,96404.00
2019-06-08T21:49:00.141Z,96408.00
2019-06-08T21:54:28.432Z,96406.00
2019-06-08T22:00:16.273Z,96410.00
2019-06-08T22:05:29.488Z,96408.00
2019-06-08T22:10:59.418Z,96404.00
2019-06-08T22:16:29.908Z,96401.00
2019-06-08T22:22:01.450Z,96405.00
2019-06-08T22:27:30.174Z,96408.00
2019-06-08T22:32:59.869Z,96415.00
2019-06-08T22:38:29.210Z,96398.00
2019-06-08T22:44:00.735Z,96415.00
2019-06-08T22:49:29.492Z,96406.00
2019-06-08T22:55:04.047Z,96406.00
2019-06-08T23:00:29.799Z,96393.00
2019-06-08T23:06:00.150Z,96403.00
2019-06-08T23:11:30.074Z,96399.00
2019-06-08T23:17:01.097Z,96407.00
2019-06-08T23:22:30.360Z,96408.00
2019-06-08T23:28:00.206Z,96402.00
2019-06-08T23:33:29.483Z,96401.00
2019-06-08T23:38:59.143Z,96409.00
2019-06-08T23:44:28.467Z,96396.00
2019-06-08T23:49:59.385Z,96402.00
2019-06-08T23:55:28.694Z,96396.00
